Time;durP1;ratioP1;P1;durP2;ratioP2;P2;SDS_P1;SDS_P2;PMS_P1;PMS_P2;Temp;Humidity;BMP_temperature;BMP_pressure;BME280_temperature;BME280_humidity;BME280_pressure;Samples;Min_cycle;Max_cycle;Signal;HPM_P1;HPM_P2
2022/11/21 05:05:31;;;;;;;0.82;0.55;;;;;;;7.68;95.72;100062.09;5084935;27;1377291;-84
2022/11/21 05:07:57;;;;;;;0.20;0.20;;;;;;;7.78;91.85;100057.34;5089730;28;20497;-86
2022/11/21 05:10:22;;;;;;;0.30;0.30;;;;;;;7.90;92.21;100059.34;5107090;28;20416;-84
2022/11/21 05:15:38;;;;;;;0.32;0.32;;;;;;;8.16;89.64;100079.56;5113971;28;20096;-85
2022/11/21 05:18:04;;;;;;;0.40;0.40;;;;;;;8.12;89.07;100072.03;5115647;28;20027;-86
2022/11/21 05:20:29;;;;;;;0.50;0.40;;;;;;;8.26;87.34;100075.66;5126283;28;20031;-88
2022/11/21 05:22:55;;;;;;;0.40;0.40;;;;;;;8.22;88.42;100074.09;5127753;28;20039;-84
2022/11/21 05:25:20;;;;;;;0.57;0.45;;;;;;;8.27;86.99;100069.56;5128581;27;20088;-84
2022/11/21 05:27:46;;;;;;;1.02;0.75;;;;;;;8.25;86.30;100073.13;5106698;28;20059;-89
2022/11/21 05:30:11;;;;;;;1.23;0.40;;;;;;;8.22;85.47;100073.28;5090385;28;20052;-88
2022/11/21 05:32:37;;;;;;;0.75;0.50;;;;;;;7.95;85.56;100039.34;5114319;28;20024;-86
2022/11/21 05:35:03;;;;;;;0.52;0.50;;;;;;;8.13;86.40;100082.28;5123842;28;20023;-86
2022/11/21 05:37:28;;;;;;;0.60;0.60;;;;;;;8.08;85.56;100076.53;5111195;28;20040;-88
2022/11/21 05:39:54;;;;;;;0.63;0.60;;;;;;;8.18;86.97;100082.91;5104973;28;20037;-85
2022/11/21 05:43:44;;;;;;;2.58;1.58;;;;;;;8.24;84.57;100092.91;5126339;28;20031;-82
2022/11/21 05:45:05;;;;;;;0.85;0.43;;;;;;;8.21;85.56;100097.38;5107584;28;20039;-80
2022/11/21 05:47:30;;;;;;;0.28;0.28;;;;;;;8.13;85.82;100100.31;5108089;28;20099;-80
2022/11/21 05:49:56;;;;;;;1.05;0.63;;;;;;;8.18;84.80;100108.66;5120991;28;20035;-88
2022/11/21 05:52:21;;;;;;;0.20;0.20;;;;;;;8.01;83.51;100113.75;5093010;28;20064;-88
2022/11/21 05:54:47;;;;;;;0.93;0.90;;;;;;;7.92;83.04;100115.03;5091138;28;20084;-83
2022/11/21 05:57:12;;;;;;;0.38;0.38;;;;;;;7.92;85.32;100112.44;5109355;28;20023;-92
2022/11/21 05:59:38;;;;;;;1.17;0.90;;;;;;;7.84;83.51;100093.94;5113028;28;20108;-89
2022/11/21 06:04:47;;;;;;;0.30;0.30;;;;;;;8.18;82.23;100125.88;5104154;28;20630;-86
2022/11/21 06:07:12;;;;;;;0.50;0.45;;;;;;;7.88;80.48;100115.25;5121705;28;20036;-85
2022/11/21 06:09:38;;;;;;;1.55;0.90;;;;;;;7.91;81.49;100123.66;5126203;28;20038;-81
2022/11/21 06:12:04;;;;;;;0.32;0.32;;;;;;;7.87;82.31;100141.91;5101959;28;20076;-81
2022/11/21 06:14:29;;;;;;;0.65;0.55;;;;;;;7.82;82.04;100151.56;5089104;28;20376;-92
2022/11/21 06:16:55;;;;;;;1.05;0.95;;;;;;;7.81;81.33;100137.03;5075934;28;20516;-91
2022/11/21 06:19:20;;;;;;;1.65;0.80;;;;;;;7.84;80.36;100147.19;5096683;28;20076;-88
2022/11/21 06:21:46;;;;;;;2.90;2.60;;;;;;;7.76;81.41;100147.50;5081730;28;20020;-89
2022/11/21 06:24:11;;;;;;;4.78;2.42;;;;;;;7.64;80.39;100161.78;5084986;28;20036;-92
2022/11/21 06:26:37;;;;;;;4.22;2.60;;;;;;;7.74;79.63;100175.06;5079928;28;20485;-88
2022/11/21 06:29:02;;;;;;;4.80;2.78;;;;;;;7.78;80.26;100194.66;5090298;28;20501;-92
2022/11/21 06:31:29;;;;;;;3.90;2.20;;;;;;;7.83;79.67;100189.28;5078625;28;20035;-84
2022/11/21 06:33:55;;;;;;;0.93;0.80;;;;;;;7.84;77.30;100206.41;5104882;28;20378;-94
2022/11/21 06:36:21;;;;;;;1.15;0.77;;;;;;;7.81;77.49;100201.41;5058230;28;20492;-81
2022/11/21 06:38:46;;;;;;;1.52;0.82;;;;;;;7.84;77.73;100206.41;5075121;28;20532;-81
2022/11/21 06:41:17;;;;;;;1.85;0.88;;;;;;;7.74;75.88;100227.41;5077712;28;20039;-86
2022/11/21 06:43:42;;;;;;;0.63;0.45;;;;;;;7.34;76.73;100170.84;5075046;28;20031;-85
2022/11/21 06:46:08;;;;;;;2.15;1.05;;;;;;;7.56;76.28;100220.47;5100857;28;20024;-79
2022/11/21 06:48:34;;;;;;;0.50;0.50;;;;;;;7.51;76.29;100232.72;5103757;28;20073;-86
2022/11/21 06:51:15;;;;;;;0.90;0.73;;;;;;;7.41;76.70;100210.84;5087292;28;20022;-87
2022/11/21 06:53:41;;;;;;;1.17;0.95;;;;;;;7.53;77.33;100230.06;5089674;28;20031;-84
2022/11/21 06:56:06;;;;;;;0.60;0.60;;;;;;;7.35;77.63;100221.38;5039110;28;20103;-80
2022/11/21 06:58:32;;;;;;;2.05;0.73;;;;;;;7.51;75.63;100234.47;5051188;28;20414;-89
2022/11/21 07:00:57;;;;;;;0.95;0.35;;;;;;;7.45;76.20;100243.25;5042816;28;20507;-87
2022/11/21 07:03:23;;;;;;;0.50;0.50;;;;;;;7.41;76.49;100241.72;5042519;28;20029;-88
2022/11/21 07:05:49;;;;;;;3.72;3.10;;;;;;;7.40;77.54;100248.63;5026202;28;20067;-92
2022/11/21 07:08:14;;;;;;;0.60;0.40;;;;;;;7.27;76.50;100226.00;5025047;28;20098;-88
2022/11/21 07:10:40;;;;;;;1.27;0.90;;;;;;;7.41;75.64;100249.47;5051831;28;20025;-90
2022/11/21 07:13:20;;;;;;;0.93;0.60;;;;;;;7.33;75.46;100238.63;5033916;28;20540;-90
2022/11/21 07:15:51;;;;;;;1.08;1.00;;;;;;;7.31;75.74;100248.16;5022412;28;20482;-87
2022/11/21 07:18:16;;;;;;;0.82;0.57;;;;;;;7.23;75.10;100239.91;5023614;28;20029;-86
2022/11/21 07:20:42;;;;;;;0.57;0.47;;;;;;;7.07;75.56;100242.28;5027655;28;20571;-88
2022/11/21 07:23:07;;;;;;;2.15;1.17;;;;;;;7.22;74.21;100245.97;5017126;28;20482;-87
2022/11/21 07:25:33;;;;;;;0.68;0.57;;;;;;;7.23;75.38;100263.06;5014140;28;20111;-91
2022/11/21 07:28:02;;;;;;;2.33;1.35;;;;;;;7.16;76.05;100252.19;5019979;28;20399;-85
2022/11/21 07:30:28;;;;;;;0.75;0.75;;;;;;;7.30;75.57;100275.63;5032873;28;20025;-81
2022/11/21 07:32:57;;;;;;;3.05;2.55;;;;;;;7.29;75.78;100276.53;5032172;28;20822;-86
2022/11/21 07:35:22;;;;;;;1.90;1.13;;;;;;;7.23;74.90;100281.09;5050519;28;20517;-88
2022/11/21 07:37:48;;;;;;;1.63;0.95;;;;;;;7.29;74.50;100291.13;5014694;28;20022;-83
2022/11/21 07:40:13;;;;;;;1.17;0.88;;;;;;;7.30;74.86;100288.50;5065998;28;20414;-91
2022/11/21 07:42:39;;;;;;;0.88;0.60;;;;;;;7.22;74.86;100290.53;5016824;28;20535;-86
2022/11/21 07:45:05;;;;;;;0.50;0.50;;;;;;;7.11;75.01;100283.25;5020029;28;20462;-86
2022/11/21 07:47:30;;;;;;;1.27;1.20;;;;;;;7.13;75.98;100294.31;5048442;28;20025;-92
2022/11/21 07:49:56;;;;;;;1.48;1.00;;;;;;;7.08;75.17;100285.09;5033454;28;20040;-88
2022/11/21 07:52:21;;;;;;;3.20;1.10;;;;;;;7.12;75.22;100284.09;5027885;28;20030;-86
2022/11/21 07:54:47;;;;;;;1.02;0.80;;;;;;;7.18;74.28;100295.00;5025831;28;20134;-84
2022/11/21 07:57:12;;;;;;;0.82;0.80;;;;;;;7.11;75.53;100296.13;5050028;28;20398;-91
2022/11/21 07:59:38;;;;;;;2.15;1.85;;;;;;;7.03;75.21;100275.00;5031836;28;20098;-84
2022/11/21 08:02:03;;;;;;;0.82;0.73;;;;;;;7.18;75.22;100287.25;5048144;28;20029;-84
2022/11/21 08:04:29;;;;;;;17.05;8.93;;;;;;;7.31;75.72;100294.47;5016806;28;20049;-84
2022/11/21 08:06:54;;;;;;;2.40;1.90;;;;;;;7.28;75.18;100298.03;5032265;28;20063;-84
2022/11/21 08:09:20;;;;;;;0.85;0.85;;;;;;;7.26;74.44;100296.38;5030632;28;20363;-84
2022/11/21 08:11:45;;;;;;;3.10;1.42;;;;;;;7.40;74.68;100299.25;5048488;28;20028;-84
2022/11/21 08:14:14;;;;;;;1.38;1.08;;;;;;;7.56;74.88;100320.03;5028543;28;20036;-94
2022/11/21 08:16:40;;;;;;;3.90;1.30;;;;;;;7.31;72.55;100273.91;5034216;28;20029;-89
2022/11/21 08:19:05;;;;;;;1.35;1.23;;;;;;;7.55;74.16;100316.63;5026454;28;20084;-81
2022/11/21 08:21:31;;;;;;;0.35;0.35;;;;;;;7.37;73.94;100300.19;5047656;28;20021;-81
2022/11/21 08:23:56;;;;;;;0.75;0.73;;;;;;;7.53;73.03;100321.00;5047208;28;20021;-86
2022/11/21 08:26:22;;;;;;;0.95;0.77;;;;;;;7.45;72.53;100307.59;5047825;28;20056;-84
2022/11/21 08:28:47;;;;;;;1.15;0.88;;;;;;;7.57;72.44;100322.56;5023952;28;20521;-84
2022/11/21 08:31:13;;;;;;;2.10;1.38;;;;;;;7.41;72.56;100300.94;5036037;28;20701;-83
2022/11/21 08:33:38;;;;;;;0.70;0.60;;;;;;;7.61;74.47;100313.81;5047559;28;20078;-86
2022/11/21 08:36:05;;;;;;;0.82;0.68;;;;;;;7.60;72.30;100317.28;5048611;28;20044;-91
2022/11/21 08:38:30;;;;;;;1.55;1.15;;;;;;;7.66;71.77;100327.31;5016536;28;20056;-88
2022/11/21 08:43:39;;;;;;;0.80;0.77;;;;;;;7.74;71.65;100339.88;5046536;28;20090;-85
2022/11/21 08:46:05;;;;;;;3.53;1.50;;;;;;;7.47;72.18;100295.50;5031726;28;20033;-86
2022/11/21 08:48:30;;;;;;;2.58;1.40;;;;;;;7.79;70.42;100329.41;5038804;28;20037;-86
2022/11/21 08:50:56;;;;;;;1.58;1.48;;;;;;;7.98;71.31;100335.44;5026538;28;20486;-86
2022/11/21 08:53:22;;;;;;;2.05;0.93;;;;;;;7.97;69.91;100341.50;5031770;28;20033;-88
2022/11/21 08:55:47;;;;;;;1.95;1.00;;;;;;;8.06;70.96;100346.22;5032058;28;20055;-77
2022/11/21 08:58:13;;;;;;;4.63;1.35;;;;;;;8.21;68.61;100355.06;5030927;28;20039;-90
2022/11/21 09:00:38;;;;;;;1.75;1.00;;;;;;;8.23;68.77;100353.25;5031708;28;20525;-83
2022/11/21 09:03:04;;;;;;;1.15;0.68;;;;;;;8.03;67.90;100360.09;5048506;28;20477;-83
2022/11/21 09:05:30;;;;;;;1.77;1.27;;;;;;;8.12;69.26;100356.28;5016093;28;20049;-86
2022/11/21 09:07:58;;;;;;;2.05;1.70;;;;;;;7.95;69.65;100369.03;5047260;28;20078;-83
2022/11/21 09:10:25;;;;;;;0.88;0.50;;;;;;;7.93;69.76;100365.69;5031555;28;20029;-87
2022/11/21 09:12:50;;;;;;;0.50;0.50;;;;;;;8.04;69.67;100376.38;5052055;28;20025;-84
2022/11/21 09:18:03;;;;;;;3.30;0.90;;;;;;;8.04;67.87;100384.13;5034784;28;20064;-86
2022/11/21 09:20:32;;;;;;;0.65;0.43;;;;;;;8.00;68.97;100374.84;5027780;28;20115;-85
2022/11/21 09:23:03;;;;;;;1.20;0.65;;;;;;;7.88;67.98;100377.94;5020155;28;20040;-82
2022/11/21 09:25:28;;;;;;;1.45;0.75;;;;;;;7.73;68.70;100363.97;5044373;28;20036;-90
2022/11/21 09:27:58;;;;;;;1.70;0.90;;;;;;;7.78;68.39;100376.66;5049601;28;20029;-86
2022/11/21 09:30:24;;;;;;;1.95;1.40;;;;;;;7.85;70.21;100370.31;5028217;28;20505;-85
2022/11/21 09:32:49;;;;;;;1.83;0.70;;;;;;;7.94;69.36;100377.69;5036749;28;20060;-84
2022/11/21 09:35:15;;;;;;;0.75;0.63;;;;;;;7.98;67.96;100384.38;5048131;28;20028;-81
2022/11/21 09:37:40;;;;;;;0.63;0.63;;;;;;;7.96;68.31;100383.59;5045053;28;20033;-85
2022/11/21 09:40:08;;;;;;;2.10;1.45;;;;;;;7.96;68.80;100386.16;5046002;28;20040;-81
2022/11/21 09:42:55;;;;;;;1.27;0.95;;;;;;;8.08;69.31;100374.53;5024708;28;20450;-87
2022/11/21 09:45:34;;;;;;;2.28;0.95;;;;;;;7.88;68.17;100363.34;5040073;28;20766;-86
2022/11/21 09:48:02;;;;;;;1.00;0.73;;;;;;;7.83;68.25;100339.50;5060850;28;20025;-80
2022/11/21 09:50:28;;;;;;;0.90;0.70;;;;;;;8.12;67.82;100376.91;5026665;28;20040;-80
2022/11/21 09:52:59;;;;;;;0.65;0.47;;;;;;;8.15;67.98;100345.84;5021532;28;20084;-88
2022/11/21 09:55:36;;;;;;;2.50;2.30;;;;;;;8.26;68.57;100379.75;5028521;28;20464;-80
2022/11/21 09:58:03;;;;;;;2.33;1.20;;;;;;;8.53;69.22;100371.72;5049948;28;20423;-89
2022/11/21 10:00:29;;;;;;;2.17;1.10;;;;;;;8.62;68.34;100366.16;5035201;28;20028;-86
2022/11/21 10:02:54;;;;;;;1.58;0.57;;;;;;;8.71;67.56;100365.75;5016379;28;20031;-88
2022/11/21 10:05:26;;;;;;;0.95;0.80;;;;;;;8.76;66.20;100379.28;5015778;28;20457;-88
2022/11/21 10:07:51;;;;;;;3.58;1.55;;;;;;;8.80;67.27;100375.63;5049645;28;20025;-85
2022/11/21 10:10:21;;;;;;;12.52;5.97;;;;;;;8.82;67.62;100368.66;5047522;28;20079;-89
2022/11/21 10:13:00;;;;;;;13.98;9.20;;;;;;;8.89;66.83;100344.25;5042905;28;20032;-89
2022/11/21 10:15:53;;;;;;;8.25;3.00;;;;;;;9.40;65.61;100372.84;5027381;28;20044;-84
2022/11/21 10:18:34;;;;;;;0.85;0.55;;;;;;;9.61;63.22;100363.22;5050163;28;20024;-86
2022/11/21 10:21:09;;;;;;;0.30;0.30;;;;;;;9.74;63.06;100369.47;5050896;28;20433;-85
2022/11/21 10:23:50;;;;;;;0.80;0.73;;;;;;;9.85;60.63;100356.84;5067053;28;20071;-84
2022/11/21 10:26:43;;;;;;;4.43;2.28;;;;;;;9.80;60.86;100369.16;5051364;28;20028;-79
2022/11/21 10:29:32;;;;;;;1.27;0.82;;;;;;;9.73;60.58;100349.69;5065220;28;20033;-86
2022/11/21 10:32:01;;;;;;;0.30;0.30;;;;;;;9.76;61.88;100352.16;5062686;28;20021;-81
2022/11/21 10:34:33;;;;;;;2.17;1.27;;;;;;;9.60;61.69;100322.81;5049301;28;20035;-83
2022/11/21 10:37:06;;;;;;;2.87;2.40;;;;;;;9.57;59.51;100335.88;5054014;28;20431;-84
2022/11/21 10:39:38;;;;;;;1.38;0.88;;;;;;;9.44;60.12;100341.66;5033094;28;20025;-85
2022/11/21 10:42:40;;;;;;;1.05;0.93;;;;;;;9.63;60.19;100367.38;5034330;28;20513;-82
2022/11/21 10:45:15;;;;;;;2.28;0.77;;;;;;;9.52;60.66;100358.50;5050947;28;20029;-83
2022/11/21 10:47:44;;;;;;;0.50;0.50;;;;;;;9.47;61.32;100359.56;5035015;28;20116;-94
2022/11/21 10:50:23;;;;;;;0.85;0.40;;;;;;;9.56;60.60;100339.38;5066923;28;20116;-90
2022/11/21 10:52:58;;;;;;;1.40;0.90;;;;;;;9.87;59.82;100360.19;5048616;28;20029;-91
2022/11/21 10:55:23;;;;;;;1.08;0.82;;;;;;;9.77;60.83;100322.81;5035601;28;20076;-88
2022/11/21 10:57:49;;;;;;;0.73;0.55;;;;;;;9.77;60.05;100333.16;5029539;28;20056;-89
2022/11/21 11:00:25;;;;;;;0.68;0.68;;;;;;;9.87;59.35;100377.44;5029814;28;20025;-85
2022/11/21 11:03:03;;;;;;;0.85;0.73;;;;;;;9.94;59.27;100364.16;5032594;28;20409;-90
2022/11/21 11:05:30;;;;;;;1.15;1.00;;;;;;;9.80;59.05;100368.31;5021596;28;20519;-89
2022/11/21 11:08:12;;;;;;;0.90;0.70;;;;;;;9.69;59.17;100341.28;5049544;28;20025;-85
2022/11/21 11:10:38;;;;;;;0.80;0.70;;;;;;;9.94;59.76;100358.97;5035893;28;20030;-95
2022/11/21 11:13:32;;;;;;;1.83;1.02;;;;;;;10.06;59.17;100354.94;5061962;28;20437;-89
2022/11/21 11:16:10;;;;;;;0.35;0.35;;;;;;;9.58;59.25;100327.22;5042007;28;20111;-89
2022/11/21 11:18:38;;;;;;;1.83;0.90;;;;;;;9.72;57.80;100348.84;5054984;28;20032;-86
2022/11/21 11:21:17;;;;;;;1.48;1.38;;;;;;;9.72;58.49;100341.09;5024565;28;20030;-84
2022/11/21 11:23:43;;;;;;;6.53;4.38;;;;;;;9.77;60.06;100340.91;5048574;28;20067;-81
2022/11/21 11:26:21;;;;;;;3.55;1.63;;;;;;;9.54;59.14;100348.94;5069902;28;20060;-83
2022/11/21 11:28:47;;;;;;;2.22;1.58;;;;;;;9.70;59.24;100348.09;5037073;28;20062;-90
2022/11/21 11:31:12;;;;;;;3.28;1.23;;;;;;;9.78;59.36;100345.16;5053451;28;20028;-85
2022/11/21 11:33:51;;;;;;;1.48;1.30;;;;;;;9.42;61.59;100343.44;5034855;28;20419;-85
2022/11/21 11:36:28;;;;;;;2.25;0.85;;;;;;;9.39;60.68;100338.44;5031159;28;20051;-86
2022/11/21 11:38:56;;;;;;;1.13;0.95;;;;;;;9.52;59.59;100349.00;5037442;28;20037;-86
2022/11/21 11:47:47;;;;;;;2.08;1.20;;;;;;;9.49;60.64;100355.16;5062326;28;20413;-86
2022/11/21 11:50:39;;;;;;;0.70;0.70;;;;;;;9.60;59.56;100366.72;5034184;28;20040;-89
2022/11/21 11:53:17;;;;;;;2.17;1.35;;;;;;;9.57;60.35;100351.38;5034898;28;20033;-88
2022/11/21 11:55:45;;;;;;;2.05;1.50;;;;;;;9.68;60.28;100339.59;5030162;28;20366;-87
2022/11/21 11:58:33;;;;;;;2.15;1.23;;;;;;;9.72;60.45;100360.94;5052801;28;20528;-85
2022/11/21 12:01:26;;;;;;;3.25;2.13;;;;;;;9.70;59.66;100347.28;5061153;28;20033;-85
2022/11/21 12:03:58;;;;;;;3.13;1.48;;;;;;;9.48;59.94;100332.00;5032261;28;20045;-84
2022/11/21 12:06:24;;;;;;;1.50;1.08;;;;;;;9.51;60.16;100355.09;5050385;28;20487;-87
2022/11/21 12:08:53;;;;;;;4.57;2.17;;;;;;;9.31;60.77;100348.31;5052606;28;20451;-87
2022/11/21 12:17:06;;;;;;;1.27;1.02;;;;;;;9.37;61.31;100345.44;5054918;28;20661;-87
2022/11/21 12:19:33;;;;;;;1.38;1.25;;;;;;;9.32;60.26;100368.03;5045663;28;20033;-85
2022/11/21 12:21:58;;;;;;;1.35;1.00;;;;;;;9.20;60.17;100332.50;5064157;28;20027;-82
2022/11/21 12:24:23;;;;;;;3.58;2.03;;;;;;;9.41;60.68;100346.13;5068167;28;20029;-83
2022/11/21 12:26:58;;;;;;;1.88;1.17;;;;;;;9.27;61.76;100354.53;5067111;28;20482;-82
2022/11/21 12:29:26;;;;;;;4.47;4.07;;;;;;;9.29;60.69;100368.19;5063880;28;20033;-86
2022/11/21 12:32:11;;;;;;;1.55;1.25;;;;;;;9.34;61.29;100358.50;5070051;28;20115;-83
2022/11/21 12:34:46;;;;;;;1.48;1.38;;;;;;;9.31;61.65;100343.13;5068648;28;20028;-87
2022/11/21 12:37:23;;;;;;;2.10;1.67;;;;;;;9.48;62.00;100363.00;5068622;28;20037;-89
2022/11/21 12:39:57;;;;;;;1.30;1.17;;;;;;;9.54;61.08;100374.75;5068680;28;20031;-93
2022/11/21 12:45:30;;;;;;;1.60;1.25;;;;;;;9.37;60.78;100366.09;5064216;28;20036;-84
2022/11/21 12:56:36;;;;;;;2.15;1.33;;;;;;;9.35;63.25;100373.06;5047008;28;20040;-87
2022/11/21 12:59:03;;;;;;;1.88;1.65;;;;;;;9.34;63.31;100371.41;5031144;28;20104;-89
2022/11/21 13:01:42;;;;;;;5.03;2.85;;;;;;;9.37;64.77;100385.91;5032168;28;20025;-86
2022/11/21 13:04:10;;;;;;;2.38;1.27;;;;;;;8.97;64.59;100343.09;5016316;28;20132;-85
2022/11/21 13:06:38;;;;;;;5.25;2.53;;;;;;;8.94;65.35;100345.78;5024362;28;20544;-93
2022/11/21 13:09:05;;;;;;;3.55;2.25;;;;;;;9.08;65.65;100379.53;5052565;28;20021;-87
2022/11/21 13:11:58;;;;;;;1.17;1.13;;;;;;;9.12;65.65;100389.63;5031630;28;20449;-81
2022/11/21 13:14:36;;;;;;;2.30;1.73;;;;;;;9.16;64.84;100388.59;5032171;28;20033;-88
2022/11/21 13:17:03;;;;;;;1.95;1.65;;;;;;;8.96;64.89;100369.78;5070009;28;20028;-78
2022/11/21 13:19:28;;;;;;;3.85;1.83;;;;;;;9.21;64.32;100411.59;5050957;28;20117;-82
2022/11/21 13:21:54;;;;;;;3.58;1.98;;;;;;;9.28;65.61;100407.84;5069323;28;20469;-89
2022/11/21 13:24:44;;;;;;;4.10;1.55;;;;;;;9.28;64.32;100415.56;5047979;28;20090;-82
2022/11/21 13:27:28;;;;;;;3.60;2.33;;;;;;;9.12;64.13;100420.59;5053227;28;20111;-85
2022/11/21 13:30:06;;;;;;;4.55;3.88;;;;;;;9.16;64.26;100418.72;5061886;28;20158;-89
2022/11/21 13:33:01;;;;;;;1.98;1.85;;;;;;;8.97;64.32;100376.63;5071481;28;20461;-82
2022/11/21 13:35:53;;;;;;;4.35;2.63;;;;;;;9.10;64.45;100398.34;5071305;28;20995;-82
2022/11/21 13:38:18;;;;;;;3.30;2.22;;;;;;;9.09;65.32;100410.44;5070792;28;20041;-84
2022/11/21 13:42:55;;;;;;;4.95;2.90;;;;;;;9.01;65.18;100409.09;5071378;28;20036;-83
2022/11/21 13:43:29;;;;;;;3.50;1.88;;;;;;;8.96;65.10;100404.16;5057722;28;20410;-87
2022/11/21 13:45:57;;;;;;;3.70;1.95;;;;;;;8.71;65.56;100407.00;5055698;28;20485;-83
2022/11/21 13:49:02;;;;;;;5.38;1.92;;;;;;;9.01;65.42;100427.16;5055311;28;20029;-80
2022/11/21 13:51:45;;;;;;;9.70;2.20;;;;;;;8.96;65.09;100432.53;5069142;28;20086;-83
2022/11/21 13:54:33;;;;;;;2.95;2.22;;;;;;;8.92;64.76;100438.72;5072046;28;20040;-81
2022/11/21 14:48:52;;;;;;;1.63;1.52;;;;;;;7.84;68.78;100472.50;5062059;28;20408;-84
2022/11/21 14:51:22;;;;;;;8.88;3.47;;;;;;;7.95;68.18;100467.75;5032262;28;20051;-84
2022/11/21 14:53:48;;;;;;;1.95;1.52;;;;;;;7.83;67.56;100439.09;5049589;28;20031;-85
2022/11/21 14:56:24;;;;;;;3.60;3.15;;;;;;;8.12;66.78;100477.38;5033198;28;20032;-83
2022/11/21 14:58:50;;;;;;;2.40;1.63;;;;;;;8.15;67.04;100472.09;5027359;28;20025;-85
2022/11/21 15:01:22;;;;;;;2.17;1.80;;;;;;;8.17;66.99;100478.06;5037359;28;20452;-80
2022/11/21 15:04:01;;;;;;;2.63;1.80;;;;;;;7.88;66.43;100429.47;5065151;28;20032;-79
2022/11/21 15:06:28;;;;;;;2.72;1.65;;;;;;;8.15;67.00;100482.41;5049536;28;20032;-83
2022/11/21 15:08:55;;;;;;;3.92;2.83;;;;;;;8.01;66.50;100469.25;5050116;28;20498;-83
2022/11/21 15:11:36;;;;;;;12.38;2.53;;;;;;;7.88;67.55;100458.63;5024174;28;20409;-82
2022/11/21 15:14:11;;;;;;;3.83;2.47;;;;;;;8.09;67.25;100492.97;5046318;28;20095;-86
2022/11/21 15:16:36;;;;;;;3.17;2.38;;;;;;;8.04;67.19;100494.91;5045470;28;20510;-84
2022/11/21 15:19:08;;;;;;;4.03;2.33;;;;;;;8.03;67.56;100498.38;5029590;28;20030;-83
2022/11/21 15:21:34;;;;;;;2.30;2.10;;;;;;;7.92;67.07;100467.06;5046362;28;20032;-79
2022/11/21 15:24:02;;;;;;;4.97;2.72;;;;;;;8.01;67.20;100487.31;5094475;28;20107;-81
2022/11/21 15:26:32;;;;;;;2.40;1.27;;;;;;;7.97;67.65;100490.91;5031414;28;20110;-79
2022/11/21 15:28:58;;;;;;;2.78;2.05;;;;;;;7.91;67.37;100491.97;5044371;28;20037;-84
2022/11/21 15:31:24;;;;;;;5.90;3.63;;;;;;;7.86;67.75;100495.63;5043571;28;20109;-83
2022/11/21 15:34:03;;;;;;;5.18;3.20;;;;;;;7.85;67.08;100504.25;5043515;28;20112;-83
2022/11/21 15:36:29;;;;;;;1.85;1.67;;;;;;;7.81;67.61;100510.44;5042457;28;20468;-83
2022/11/21 15:38:56;;;;;;;4.43;2.90;;;;;;;7.48;67.85;100473.06;5044041;28;20461;-83
2022/11/21 15:41:25;;;;;;;8.38;4.00;;;;;;;7.82;68.46;100527.56;5041833;28;20135;-84
2022/11/21 15:43:55;;;;;;;7.05;4.25;;;;;;;7.72;68.45;100519.34;5042068;28;20029;-83
2022/11/21 15:46:26;;;;;;;6.18;3.58;;;;;;;7.73;68.91;100524.44;5058974;28;20490;-84
2022/11/21 15:48:52;;;;;;;1.58;1.48;;;;;;;7.60;70.07;100533.53;5025578;28;20033;-83
2022/11/21 15:51:24;;;;;;;3.30;2.65;;;;;;;7.52;69.98;100524.44;5057956;28;20036;-84
2022/11/21 15:53:51;;;;;;;9.47;2.47;;;;;;;7.49;70.46;100535.69;5042143;28;20025;-83
2022/11/21 15:56:17;;;;;;;5.03;2.63;;;;;;;7.46;69.94;100512.63;5028048;28;20290;-83
2022/11/21 15:58:43;;;;;;;6.55;3.50;;;;;;;7.55;70.06;100544.91;5055935;28;20041;-82
2022/11/21 16:01:19;;;;;;;3.03;2.72;;;;;;;7.37;70.50;100512.97;5031714;28;20083;-83
2022/11/21 16:03:45;;;;;;;5.32;3.60;;;;;;;7.53;69.74;100516.66;5032558;28;20032;-83
2022/11/21 16:06:11;;;;;;;5.70;3.03;;;;;;;7.60;70.56;100527.56;5031298;28;20105;-83
2022/11/21 16:08:36;;;;;;;4.70;3.20;;;;;;;7.52;70.35;100535.56;5030634;28;20025;-84
2022/11/21 16:11:02;;;;;;;2.47;2.15;;;;;;;7.46;70.66;100540.94;5015369;28;20036;-83
2022/11/21 16:13:27;;;;;;;3.25;2.20;;;;;;;7.27;71.06;100525.34;5032987;28;20091;-82
2022/11/21 16:15:53;;;;;;;3.42;2.55;;;;;;;7.29;70.73;100533.84;5031789;28;20025;-83
2022/11/21 16:18:18;;;;;;;3.30;2.28;;;;;;;7.42;71.14;100544.53;5031899;28;20034;-82
2022/11/21 16:20:44;;;;;;;2.38;1.85;;;;;;;7.44;70.48;100547.88;5015467;28;20454;-83
2022/11/21 16:23:10;;;;;;;7.35;3.10;;;;;;;7.35;70.69;100540.50;5015068;28;20033;-83
2022/11/21 16:25:36;;;;;;;8.10;3.28;;;;;;;7.34;71.40;100551.69;5032707;28;20030;-83
2022/11/21 16:28:01;;;;;;;2.53;2.22;;;;;;;7.33;70.71;100540.56;5014877;28;20083;-82
2022/11/21 16:30:27;;;;;;;2.22;1.67;;;;;;;7.23;71.65;100535.81;5015247;28;20025;-83
2022/11/21 16:32:54;;;;;;;2.45;2.20;;;;;;;7.25;70.87;100544.31;5015246;28;20069;-83
2022/11/21 16:35:21;;;;;;;2.95;2.65;;;;;;;7.13;71.23;100538.72;5015435;28;20061;-83
2022/11/21 16:37:46;;;;;;;4.20;2.83;;;;;;;7.11;71.20;100544.81;5031606;28;20034;-83
2022/11/21 16:40:12;;;;;;;1.98;1.48;;;;;;;7.24;71.53;100553.75;5031602;28;20040;-83
2022/11/21 16:42:37;;;;;;;5.30;2.78;;;;;;;7.26;71.02;100561.41;5014718;28;20402;-83
2022/11/21 16:45:04;;;;;;;4.28;3.38;;;;;;;7.24;71.33;100555.50;5015075;28;20025;-83
2022/11/21 16:47:29;;;;;;;4.57;2.83;;;;;;;7.18;71.41;100570.28;5014817;28;20080;-83
2022/11/21 16:49:55;;;;;;;3.42;2.88;;;;;;;7.05;70.53;100545.84;5014898;28;20060;-83
2022/11/21 16:52:20;;;;;;;2.35;1.77;;;;;;;7.07;71.05;100551.78;5015151;28;20041;-83
2022/11/21 16:54:46;;;;;;;4.28;1.88;;;;;;;7.19;70.77;100573.69;5014800;28;20017;-83
2022/11/21 16:57:11;;;;;;;3.22;2.40;;;;;;;7.12;70.82;100549.91;5030671;28;20392;-83
2022/11/21 16:59:37;;;;;;;3.30;2.08;;;;;;;7.26;71.11;100579.44;5030934;28;20515;-83
2022/11/21 17:02:02;;;;;;;3.70;2.97;;;;;;;7.14;71.03;100573.00;5030923;28;20027;-83
2022/11/21 17:04:28;;;;;;;3.53;1.98;;;;;;;7.22;70.71;100583.84;5031205;28;20510;-83
2022/11/21 17:06:53;;;;;;;5.07;3.55;;;;;;;7.12;70.90;100577.34;5014422;28;20044;-84
2022/11/21 17:09:19;;;;;;;5.70;2.13;;;;;;;7.17;70.65;100603.75;5031066;28;20513;-83
2022/11/21 17:11:44;;;;;;;8.98;3.45;;;;;;;7.21;70.67;100596.78;5013329;28;20033;-82
2022/11/21 17:14:10;;;;;;;3.08;2.30;;;;;;;7.23;71.62;100605.28;5014451;28;20029;-83
2022/11/21 17:16:36;;;;;;;2.03;1.83;;;;;;;7.26;71.21;100615.44;5030675;28;20055;-83
2022/11/21 17:19:02;;;;;;;5.45;4.88;;;;;;;7.13;70.73;100615.88;5030899;28;20037;-83
2022/11/21 17:21:28;;;;;;;5.50;3.00;;;;;;;7.18;71.37;100626.03;5047034;28;20026;-83
2022/11/21 17:23:54;;;;;;;4.55;3.08;;;;;;;7.16;70.60;100615.78;5030547;28;20025;-82
2022/11/21 17:26:21;;;;;;;8.60;4.32;;;;;;;7.21;70.94;100625.91;5013861;28;20025;-83
2022/11/21 17:29:02;;;;;;;6.18;3.08;;;;;;;7.21;70.83;100618.19;5047219;28;20072;-83
2022/11/21 17:31:28;;;;;;;5.82;3.13;;;;;;;7.09;70.81;100601.47;5031648;28;20120;-83
2022/11/21 17:33:55;;;;;;;8.38;5.35;;;;;;;7.09;70.54;100600.63;5014197;28;20159;-83
2022/11/21 17:36:22;;;;;;;3.38;2.50;;;;;;;7.05;70.68;100617.03;5014256;28;20017;-82
2022/11/21 17:38:47;;;;;;;8.85;5.20;;;;;;;7.12;70.39;100628.81;5030453;28;20039;-83
2022/11/21 17:41:15;;;;;;;5.93;3.75;;;;;;;7.09;70.42;100634.06;5013700;28;20029;-84
2022/11/21 17:43:41;;;;;;;4.75;4.32;;;;;;;7.10;71.20;100636.59;5030552;28;20026;-83
2022/11/21 17:46:10;;;;;;;4.35;3.70;;;;;;;7.01;70.83;100620.63;5013993;28;20116;-83
2022/11/21 17:48:36;;;;;;;9.60;5.20;;;;;;;7.05;70.97;100612.75;5029851;28;20049;-82
2022/11/21 17:51:09;;;;;;;9.30;6.13;;;;;;;7.22;71.35;100619.03;5013918;28;20030;-83
2022/11/21 17:53:36;;;;;;;9.07;5.75;;;;;;;7.36;70.68;100634.81;5014555;28;20048;-83
2022/11/21 17:56:03;;;;;;;13.88;7.47;;;;;;;7.35;70.74;100641.69;5046549;28;20116;-83
2022/11/21 17:58:29;;;;;;;13.57;7.32;;;;;;;7.35;71.51;100628.84;5030114;28;20419;-83
2022/11/21 18:00:55;;;;;;;12.73;6.78;;;;;;;7.40;70.85;100633.84;5046641;28;20026;-83
2022/11/21 18:03:21;;;;;;;10.35;8.25;;;;;;;7.36;70.84;100642.53;5030022;28;20025;-84
2022/11/21 18:05:46;;;;;;;10.45;7.40;;;;;;;7.32;71.27;100628.94;5013601;28;20079;-83
2022/11/21 18:08:12;;;;;;;10.13;6.63;;;;;;;7.48;70.70;100648.13;5013598;28;20038;-83
2022/11/21 18:10:37;;;;;;;10.75;5.78;;;;;;;7.34;71.30;100634.03;5013216;28;20033;-83
2022/11/21 18:13:03;;;;;;;9.57;6.55;;;;;;;7.35;71.83;100656.31;5046108;28;20034;-83
2022/11/21 18:15:28;;;;;;;10.25;5.78;;;;;;;7.33;70.54;100620.34;5013137;28;20030;-83